Suomigracht — PHBT — position and weather

sailwx.info

Track history (hours):
 
Tides and Currents Weather Stations Pressure Air Temp Water Temp Dewpoint Dewpoint Depression Visibility Wind Speed Wind Dir Waves Ship Positions

Suomigracht

Last reported at 2018-Sep-18 09:11 UTC. Time now 2018-Sep-19 05:02 UTC.
Position N 28°25' W 093°03'.

Length 173 m; beam 26 m.

Type: Cargo ship. MMSI: 246100000.

Date/timePositionNaut miles runAvg speedWind from/ knotsBaromVisibWave heightAir tempDewpointWater temp
2018-Sep-18 09:11N 28°25' W 093°03'214.3
2018-Sep-18 09:02N 28°26' W 093°04'2314.0
2018-Sep-18 07:22N 28°45' W 093°20'514.0
2018-Sep-18 07:03N 28°49' W 093°24'114.0
2018-Sep-18 06:59N 28°49' W 093°24'714.0
2018-Sep-18 06:29N 28°55' W 093°29'613.8
2018-Sep-18 06:03N 28°60' W 093°33'113.9
2018-Sep-18 06:00N 29°00' W 093°34'713.8
2018-Sep-18 05:30N 29°06' W 093°38'612.9
2018-Sep-18 05:03N 29°11' W 093°40'113.4
2018-Sep-18 05:00N 29°12' W 093°40'713.4
2018-Sep-18 04:29N 29°19' W 093°40'613.8
2018-Sep-18 04:03N 29°25' W 093°40'114.1
2018-Sep-18 04:00N 29°26' W 093°40'611.7
2018-Sep-18 03:30N 29°31' W 093°42'612.5
2018-Sep-18 03:03N 29°35' W 093°47'0 7.8
2018-Sep-18 03:00N 29°35' W 093°47'5 9.7
2018-Sep-18 02:30N 29°40' W 093°50'510.2
2018-Sep-18 02:03N 29°44' W 093°52'0 9.0
2018-Sep-18 02:00N 29°44' W 093°52'4 8.4
2018-Sep-18 01:30N 29°47' W 093°56'4 8.8
2018-Sep-18 01:03N 29°50' W 093°57'010.0
2018-Sep-18 01:00N 29°51' W 093°57'1 2.4
2018-Sep-18 00:30N 29°52' W 093°56'0 0.0
2018-Sep-18 00:03N 29°52' W 093°56'0 0.0
2018-Sep-18 00:00N 29°52' W 093°56'0 0.0
2018-Sep-17 23:30N 29°52' W 093°56'0 0.0
2018-Sep-17 23:00N 29°52' W 093°56'0 0.0
2018-Sep-17 22:30N 29°52' W 093°56'0 0.0
2018-Sep-17 22:03N 29°52' W 093°56'0 0.0
2018-Sep-17 22:00N 29°52' W 093°56'0 0.0
2018-Sep-17 21:30N 29°52' W 093°56'0 0.0
2018-Sep-17 21:03N 29°52' W 093°56'0 0.0
2018-Sep-17 21:00N 29°52' W 093°56'0 0.0
2018-Sep-17 20:30N 29°52' W 093°56'0 0.0
2018-Sep-17 20:03N 29°52' W 093°56'0 0.0
2018-Sep-17 20:00N 29°52' W 093°56'0 0.0
2018-Sep-17 19:30N 29°52' W 093°56'0 0.0
2018-Sep-17 19:03N 29°52' W 093°56'0 0.0
2018-Sep-17 19:00N 29°52' W 093°56'0 0.0
2018-Sep-17 18:30N 29°52' W 093°56'0 0.0
2018-Sep-17 18:03N 29°52' W 093°56'0 0.0
2018-Sep-17 18:00N 29°52' W 093°56'0 0.0
2018-Sep-17 17:30N 29°52' W 093°56'0 0.0
2018-Sep-17 17:03N 29°52' W 093°56'0 0.0
2018-Sep-17 17:00N 29°52' W 093°56'0 0.0
2018-Sep-17 16:30N 29°52' W 093°56'0 0.0
2018-Sep-17 16:00N 29°52' W 093°56'0 0.0
2018-Sep-17 15:30N 29°52' W 093°56'0 0.0
2018-Sep-17 15:03N 29°52' W 093°56'0 0.1
2018-Sep-17 15:00N 29°52' W 093°56'0 0.0
2018-Sep-17 14:30N 29°52' W 093°56'0 0.0
2018-Sep-17 14:00N 29°52' W 093°56'0 0.0
2018-Sep-17 13:30N 29°52' W 093°56'0 0.0
2018-Sep-17 13:03N 29°52' W 093°56'0 0.1
2018-Sep-17 13:00N 29°52' W 093°56'0 0.0
2018-Sep-17 12:30N 29°52' W 093°56'0 0.0
2018-Sep-17 12:03N 29°52' W 093°56'0 0.0
2018-Sep-17 12:00N 29°52' W 093°56'0 0.0
2018-Sep-17 11:30N 29°52' W 093°56'0 0.0
2018-Sep-17 11:03N 29°52' W 093°56'0 0.2
2018-Sep-17 11:00N 29°52' W 093°56'0 0.0
2018-Sep-17 10:27N 29°52' W 093°56'0 0.0
2018-Sep-17 10:03N 29°52' W 093°56'0 0.1
2018-Sep-17 10:00N 29°52' W 093°56'0 0.0
2018-Sep-17 09:30N 29°52' W 093°56'0 0.0
2018-Sep-17 09:03N 29°52' W 093°56'0 0.0
2018-Sep-17 09:00N 29°52' W 093°56'0 0.0
2018-Sep-17 08:30N 29°52' W 093°56'0 0.0
2018-Sep-17 08:03N 29°52' W 093°56'0 0.0
2018-Sep-17 08:00N 29°52' W 093°56'0 0.0
2018-Sep-17 07:24N 29°52' W 093°56'0 0.0
2018-Sep-17 07:03N 29°52' W 093°56'0 0.1
2018-Sep-17 07:00N 29°52' W 093°56'0 0.0
2018-Sep-17 06:30N 29°52' W 093°56'0 0.0
2018-Sep-17 06:03N 29°52' W 093°56'0 0.0
2018-Sep-17 06:00N 29°52' W 093°56'0 0.0
2018-Sep-17 05:30N 29°52' W 093°56'0 0.0
2018-Sep-17 05:03N 29°52' W 093°56'0 0.0
2018-Sep-17 05:00N 29°52' W 093°56'0 0.0
2018-Sep-17 04:29N 29°52' W 093°56'0 0.0
2018-Sep-17 04:02N 29°52' W 093°56'0 0.0
2018-Sep-17 03:59N 29°52' W 093°56'0 0.0
2018-Sep-17 03:29N 29°52' W 093°56'0 0.0
2018-Sep-17 03:02N 29°52' W 093°56'0 0.0
2018-Sep-17 02:59N 29°52' W 093°56'0 0.0
2018-Sep-17 02:29N 29°52' W 093°56'0 0.0
2018-Sep-17 02:02N 29°52' W 093°56'0 0.1
2018-Sep-17 01:59N 29°52' W 093°56'0 0.0
2018-Sep-17 01:29N 29°52' W 093°56'0 0.0
2018-Sep-17 01:02N 29°52' W 093°56'0 0.1
2018-Sep-17 00:59N 29°52' W 093°56'0 0.0
2018-Sep-17 00:29N 29°52' W 093°56'0 0.0
2018-Sep-17 00:02N 29°52' W 093°56'0 0.2
2018-Sep-16 23:59N 29°52' W 093°56'0 0.0
2018-Sep-16 23:29N 29°52' W 093°56'0 0.0
2018-Sep-16 23:02N 29°52' W 093°56'0 0.0
2018-Sep-16 22:59N 29°52' W 093°56'0 0.0
2018-Sep-16 22:29N 29°52' W 093°56'0 0.0
2018-Sep-16 22:02N 29°52' W 093°56'0 0.0
2018-Sep-16 21:59N 29°52' W 093°56'0 0.0
2018-Sep-16 21:29N 29°52' W 093°56'0 0.0
2018-Sep-16 21:02N 29°52' W 093°56'0 0.0
2018-Sep-16 20:59N 29°52' W 093°56'0 0.0
2018-Sep-16 20:29N 29°52' W 093°56'0 0.0
2018-Sep-16 20:02N 29°52' W 093°56'0 0.0
2018-Sep-16 19:56N 29°52' W 093°56'0 0.0
2018-Sep-16 19:29N 29°52' W 093°56'0 0.0
2018-Sep-16 19:02N 29°52' W 093°56'0 0.0
2018-Sep-16 18:59N 29°52' W 093°56'0 0.0
2018-Sep-16 18:29N 29°52' W 093°56'0 0.0
2018-Sep-16 18:02N 29°52' W 093°56'0 0.0
2018-Sep-16 17:59N 29°52' W 093°56'0 0.0
2018-Sep-16 17:29N 29°52' W 093°56'0 0.0
2018-Sep-16 17:02N 29°52' W 093°56'0 0.0
2018-Sep-16 16:59N 29°52' W 093°56'0 0.0
2018-Sep-16 16:29N 29°52' W 093°56'0 0.0
2018-Sep-16 16:02N 29°52' W 093°56'0 0.0
2018-Sep-16 15:59N 29°52' W 093°56'0 0.0
2018-Sep-16 15:29N 29°52' W 093°56'0 0.0
2018-Sep-16 15:02N 29°52' W 093°56'0 0.1
2018-Sep-16 14:59N 29°52' W 093°56'0 0.0
2018-Sep-16 14:29N 29°52' W 093°56'0 0.0
2018-Sep-16 13:29N 29°52' W 093°56'0 0.0
2018-Sep-16 13:02N 29°52' W 093°56'0 0.0
2018-Sep-16 12:59N 29°52' W 093°56'0 0.0
2018-Sep-16 12:29N 29°52' W 093°56'0 0.0
2018-Sep-16 12:02N 29°52' W 093°56'0 0.1
2018-Sep-16 11:59N 29°52' W 093°56'0 0.0
2018-Sep-16 11:29N 29°52' W 093°56'0 0.0
2018-Sep-16 11:02N 29°52' W 093°56'0 0.0
2018-Sep-16 10:59N 29°52' W 093°56'0 0.0
2018-Sep-16 10:29N 29°52' W 093°56'0 0.0
2018-Sep-16 10:02N 29°52' W 093°56'0 0.2
2018-Sep-16 09:59N 29°52' W 093°56'0 0.0
2018-Sep-16 09:29N 29°52' W 093°56'0 0.0
2018-Sep-16 09:02N 29°52' W 093°56'0 0.0
2018-Sep-16 08:59N 29°52' W 093°56'0 0.0
2018-Sep-16 08:29N 29°52' W 093°56'0 0.0
2018-Sep-16 08:02N 29°52' W 093°56'0 0.0
2018-Sep-16 07:59N 29°52' W 093°56'0 0.0
2018-Sep-16 07:29N 29°52' W 093°56'0 0.0
2018-Sep-16 07:02N 29°52' W 093°56'0 0.0
2018-Sep-16 06:59N 29°52' W 093°56'0 0.0
2018-Sep-16 06:29N 29°52' W 093°56'0 0.0
2018-Sep-16 06:02N 29°52' W 093°56'0 0.0
2018-Sep-16 05:59N 29°52' W 093°56'0 0.0
2018-Sep-16 05:29N 29°52' W 093°56'0 0.0
2018-Sep-16 05:02N 29°52' W 093°56'0 0.0
2018-Sep-16 04:59N 29°52' W 093°56'0 0.0
2018-Sep-16 04:29N 29°52' W 093°56'0 0.0
2018-Sep-16 04:02N 29°52' W 093°56'0 0.0
2018-Sep-16 03:59N 29°52' W 093°56'0 0.0
2018-Sep-16 03:29N 29°52' W 093°56'0 0.0
2018-Sep-16 03:02N 29°52' W 093°56'0 0.0
2018-Sep-16 02:59N 29°52' W 093°56'0 0.0
2018-Sep-16 02:29N 29°52' W 093°56'0 0.0
2018-Sep-16 02:02N 29°52' W 093°56'0 0.0
2018-Sep-16 01:59N 29°52' W 093°56'0 0.0
2018-Sep-16 01:29N 29°52' W 093°56'0 0.0
2018-Sep-16 01:02N 29°52' W 093°56'0 0.0
2018-Sep-16 00:59N 29°52' W 093°56'0 0.0
2018-Sep-16 00:29N 29°52' W 093°56'0 0.0
2018-Sep-16 00:02N 29°52' W 093°56'0 0.0
2018-Sep-15 23:56N 29°52' W 093°56'0 0.0
2018-Sep-15 23:29N 29°52' W 093°56'0 0.0
2018-Sep-15 23:02N 29°52' W 093°56'0 0.1
2018-Sep-15 22:59N 29°52' W 093°56'0 0.0
2018-Sep-15 22:29N 29°52' W 093°56'0 0.0
2018-Sep-15 22:02N 29°52' W 093°56'0 0.0
2018-Sep-15 21:59N 29°52' W 093°56'0 0.0
2018-Sep-15 21:29N 29°52' W 093°56'0 0.0
2018-Sep-15 21:02N 29°52' W 093°56'0 0.2
2018-Sep-15 20:59N 29°52' W 093°56'0 0.0
2018-Sep-15 20:29N 29°52' W 093°56'0 0.0
2018-Sep-15 20:02N 29°52' W 093°56'0 0.1
2018-Sep-15 19:59N 29°52' W 093°56'0 0.0
2018-Sep-15 19:29N 29°52' W 093°56'0 0.0
2018-Sep-15 19:02N 29°52' W 093°56'0 0.0
2018-Sep-15 18:59N 29°52' W 093°56'0 0.0
2018-Sep-15 18:29N 29°52' W 093°56'0 0.0
2018-Sep-15 18:02N 29°52' W 093°56'0 0.0
2018-Sep-15 17:59N 29°52' W 093°56'0 0.0
2018-Sep-15 17:29N 29°52' W 093°56'0 0.0
2018-Sep-15 17:02N 29°52' W 093°56'0 0.0
2018-Sep-15 16:59N 29°52' W 093°56'0 0.0
2018-Sep-15 16:29N 29°52' W 093°56'0 0.0
2018-Sep-15 16:02N 29°52' W 093°56'0 0.0
2018-Sep-15 15:59N 29°52' W 093°56'0 0.0
2018-Sep-15 15:28N 29°52' W 093°56'0 0.0
2018-Sep-15 14:58N 29°52' W 093°56'0 0.0
2018-Sep-15 14:28N 29°52' W 093°56'0 0.0
2018-Sep-15 13:58N 29°52' W 093°56'0 0.0
2018-Sep-15 13:28N 29°52' W 093°56'0 0.0
2018-Sep-15 13:01N 29°52' W 093°56'0 0.0
2018-Sep-15 12:58N 29°52' W 093°56'0 0.0
2018-Sep-15 12:28N 29°52' W 093°56'0 0.0
2018-Sep-15 12:01N 29°52' W 093°56'0 0.0
2018-Sep-15 11:58N 29°52' W 093°56'0 0.0
2018-Sep-15 11:28N 29°52' W 093°56'0 0.0
2018-Sep-15 11:01N 29°52' W 093°56'0 0.0
2018-Sep-15 10:58N 29°52' W 093°56'0 0.0
2018-Sep-15 10:28N 29°52' W 093°56'0 0.0
2018-Sep-15 10:01N 29°52' W 093°56'0 0.1
2018-Sep-15 09:58N 29°52' W 093°56'0 0.0
2018-Sep-15 09:28N 29°52' W 093°56'0 0.0
2018-Sep-15 09:01N 29°52' W 093°56'0 0.0
2018-Sep-15 08:58N 29°52' W 093°56'0 0.0
2018-Sep-15 08:28N 29°52' W 093°56'0 0.0
2018-Sep-15 07:58N 29°52' W 093°56'0 0.0
2018-Sep-15 07:28N 29°52' W 093°56'0 0.0
2018-Sep-15 07:03N 29°52' W 093°56'0 0.5
2018-Sep-15 07:00N 29°52' W 093°56'0 0.9
2018-Sep-15 06:30N 29°52' W 093°56'2 5.2
2018-Sep-15 06:03N 29°50' W 093°57'0 9.1
2018-Sep-15 06:00N 29°50' W 093°57'4 7.9
2018-Sep-15 05:30N 29°46' W 093°55'4 9.3
2018-Sep-15 05:03N 29°43' W 093°52'111.2
2018-Sep-15 05:00N 29°43' W 093°51'611.5
2018-Sep-15 04:30N 29°37' W 093°49'511.3
2018-Sep-15 04:03N 29°33' W 093°45'0 9.5
2018-Sep-15 04:00N 29°33' W 093°45'5 9.2
2018-Sep-15 03:30N 29°30' W 093°49'614.0
2018-Sep-15 03:04N 29°29' W 093°56'113.7
2018-Sep-15 03:00N 29°29' W 093°57'714.5
2018-Sep-15 02:30N 29°24' W 094°03'2614.2
2018-Sep-15 00:41N 29°08' W 094°27'314.6
2018-Sep-15 00:28N 29°10' W 094°29'614.4
2018-Sep-15 00:03N 29°15' W 094°34'114.3
2018-Sep-14 23:58N 29°16' W 094°35'612.5
2018-Sep-14 23:30N 29°20' W 094°40'614.2
2018-Sep-14 23:03N 29°21' W 094°47'115.4
2018-Sep-14 23:00N 29°22' W 094°48'714.8
2018-Sep-14 22:30N 29°28' W 094°51'614.4
2018-Sep-14 22:03N 29°34' W 094°55'113.9
2018-Sep-14 22:00N 29°34' W 094°56'5 9.6
2018-Sep-14 21:30N 29°37' W 095°01'0 0.1
2018-Sep-14 20:58N 29°37' W 095°00'0 0.0
2018-Sep-14 20:28N 29°37' W 095°00'0 0.0
2018-Sep-14 20:01N 29°37' W 095°00'0 0.0
2018-Sep-14 19:58N 29°37' W 095°00'0 0.0
2018-Sep-14 19:28N 29°37' W 095°00'0 0.0
2018-Sep-14 19:01N 29°37' W 095°00'0 0.1
2018-Sep-14 18:58N 29°37' W 095°00'0 0.0
2018-Sep-14 18:25N 29°37' W 095°00'0 0.0
2018-Sep-14 18:01N 29°37' W 095°00'0 0.0
2018-Sep-14 17:58N 29°37' W 095°00'0 0.0
2018-Sep-14 17:28N 29°37' W 095°00'0 0.0
2018-Sep-14 17:01N 29°37' W 095°00'0 0.1
2018-Sep-14 16:58N 29°37' W 095°00'0 0.0
2018-Sep-14 16:28N 29°37' W 095°00'0 0.0
2018-Sep-14 16:01N 29°37' W 095°00'0 0.0
2018-Sep-14 15:58N 29°37' W 095°00'0 0.0
2018-Sep-14 15:28N 29°37' W 095°00'0 0.0
2018-Sep-14 15:01N 29°37' W 095°00'0 0.0
2018-Sep-14 14:58N 29°37' W 095°00'0 0.0
2018-Sep-14 14:28N 29°37' W 095°00'0 0.0
2018-Sep-14 13:58N 29°37' W 095°00'0 0.0
2018-Sep-14 13:28N 29°37' W 095°00'0 0.0
2018-Sep-14 12:55N 29°37' W 095°00'0 0.0
2018-Sep-14 12:28N 29°37' W 095°00'0 0.0
2018-Sep-14 12:01N 29°37' W 095°00'0 0.1
2018-Sep-14 11:58N 29°37' W 095°00'0 0.0
2018-Sep-14 11:28N 29°37' W 095°00'0 0.0
2018-Sep-14 11:01N 29°37' W 095°00'0 0.0
2018-Sep-14 10:58N 29°37' W 095°00'0 0.0
2018-Sep-14 10:28N 29°37' W 095°00'0 0.0
2018-Sep-14 10:01N 29°37' W 095°00'0 0.0
2018-Sep-14 09:58N 29°37' W 095°00'0 0.0
2018-Sep-14 09:28N 29°37' W 095°00'0 0.0
2018-Sep-14 09:01N 29°37' W 095°00'0 0.0
2018-Sep-14 08:58N 29°37' W 095°00'0 0.0
2018-Sep-14 08:28N 29°37' W 095°00'0 0.0
2018-Sep-14 08:01N 29°37' W 095°00'0 0.1
2018-Sep-14 07:58N 29°37' W 095°00'0 0.0
2018-Sep-14 07:28N 29°37' W 095°00'0 0.0
2018-Sep-14 07:01N 29°37' W 095°00'0 0.0
2018-Sep-14 06:58N 29°37' W 095°00'0 0.0
2018-Sep-14 06:28N 29°37' W 095°00'0 0.0
2018-Sep-14 06:01N 29°37' W 095°00'0 0.1
2018-Sep-14 05:58N 29°37' W 095°00'0 0.0
2018-Sep-14 05:28N 29°37' W 095°00'0 0.0
2018-Sep-14 05:01N 29°37' W 095°00'0 0.0
2018-Sep-14 04:31N 29°37' W 095°00'0 0.0
2018-Sep-14 04:04N 29°37' W 095°00'0 0.0
2018-Sep-14 04:01N 29°37' W 095°00'0 0.0
2018-Sep-14 03:30N 29°37' W 095°00'0 0.0
2018-Sep-14 03:03N 29°37' W 095°00'0 0.1
2018-Sep-14 03:00N 29°37' W 095°00'0 0.0
2018-Sep-14 02:30N 29°37' W 095°00'0 0.0
2018-Sep-14 02:03N 29°37' W 095°00'0 0.0
2018-Sep-14 02:00N 29°37' W 095°00'0 0.0
2018-Sep-14 01:30N 29°37' W 095°00'0 0.0
2018-Sep-14 01:03N 29°37' W 095°00'0 0.0
2018-Sep-14 01:00N 29°37' W 095°00'0 0.0
2018-Sep-14 00:30N 29°37' W 095°00'0 0.0
2018-Sep-14 00:03N 29°37' W 095°00'0 0.1
2018-Sep-14 00:00N 29°37' W 095°00'0 0.0
2018-Sep-13 23:30N 29°37' W 095°00'0 0.0
2018-Sep-13 23:03N 29°37' W 095°00'0 0.0
2018-Sep-13 22:57N 29°37' W 095°00'0 0.0
2018-Sep-13 22:30N 29°37' W 095°00'0 0.0
2018-Sep-13 22:03N 29°37' W 095°00'0 0.0
2018-Sep-13 22:00N 29°37' W 095°00'0 0.0
2018-Sep-13 21:30N 29°37' W 095°00'0 0.0
2018-Sep-13 21:03N 29°37' W 095°00'0 0.0
2018-Sep-13 21:00N 29°37' W 095°00'0 0.0
2018-Sep-13 20:30N 29°37' W 095°00'0 0.0
2018-Sep-13 20:03N 29°37' W 095°00'0 0.0
2018-Sep-13 20:00N 29°37' W 095°00'0 0.0
2018-Sep-13 19:30N 29°37' W 095°00'0 0.0
2018-Sep-13 19:03N 29°37' W 095°00'0 0.1
2018-Sep-13 19:00N 29°37' W 095°00'0 0.0
2018-Sep-13 18:30N 29°37' W 095°00'0 0.0
2018-Sep-13 18:03N 29°37' W 095°00'0 0.1
2018-Sep-13 18:00N 29°37' W 095°00'0 0.0
2018-Sep-13 17:30N 29°37' W 095°00'0 0.0
2018-Sep-13 17:03N 29°37' W 095°00'0 0.0
2018-Sep-13 17:00N 29°37' W 095°00'0 0.0
2018-Sep-13 16:30N 29°37' W 095°00'0 0.0
2018-Sep-13 16:03N 29°37' W 095°00'0 0.1
2018-Sep-13 16:00N 29°37' W 095°00'0 0.0
2018-Sep-13 15:30N 29°37' W 095°00'0 0.0
2018-Sep-13 15:03N 29°37' W 095°00'0 0.0
2018-Sep-13 15:00N 29°37' W 095°00'0 0.0
2018-Sep-13 14:03N 29°37' W 095°00'0 0.0
2018-Sep-13 14:00N 29°37' W 095°00'0 0.0
2018-Sep-13 13:30N 29°37' W 095°00'0 0.0
2018-Sep-13 13:03N 29°37' W 095°00'0 0.0
2018-Sep-13 13:00N 29°37' W 095°00'0 0.0
2018-Sep-13 12:30N 29°37' W 095°00'0 0.0
2018-Sep-13 12:03N 29°37' W 095°00'0 0.0
2018-Sep-13 12:00N 29°37' W 095°00'0 0.0
2018-Sep-13 11:30N 29°37' W 095°00'0 0.0
2018-Sep-13 11:03N 29°37' W 095°00'0 0.1
2018-Sep-13 11:00N 29°37' W 095°00'0 0.0
2018-Sep-13 10:30N 29°37' W 095°00'0 0.0
2018-Sep-13 10:03N 29°37' W 095°00'0 0.0
2018-Sep-13 10:00N 29°37' W 095°00'0 0.0
2018-Sep-13 09:30N 29°37' W 095°00'0 0.0
2018-Sep-13 09:03N 29°37' W 095°00'0 0.0
2018-Sep-13 09:00N 29°37' W 095°00'0 0.0
2018-Sep-13 08:30N 29°37' W 095°00'0 0.0
2018-Sep-13 08:03N 29°37' W 095°00'0 0.0
2018-Sep-13 08:00N 29°37' W 095°00'0 0.0
2018-Sep-13 07:30N 29°37' W 095°00'0 0.0
2018-Sep-13 07:03N 29°37' W 095°00'0 0.0
2018-Sep-13 07:00N 29°37' W 095°00'0 0.0
2018-Sep-13 06:30N 29°37' W 095°00'0 0.0
2018-Sep-13 06:03N 29°37' W 095°00'0 0.1
2018-Sep-13 06:00N 29°37' W 095°00'0 0.0
2018-Sep-13 05:30N 29°37' W 095°00'0 0.0
2018-Sep-13 05:03N 29°37' W 095°00'0 0.1
2018-Sep-13 05:00N 29°37' W 095°00'0 0.0
2018-Sep-13 04:27N 29°37' W 095°00'0 0.0
2018-Sep-13 04:03N 29°37' W 095°00'0 0.0
2018-Sep-13 04:00N 29°37' W 095°00'0 0.0
2018-Sep-13 03:30N 29°37' W 095°00'0 0.0
2018-Sep-13 03:00N 29°37' W 095°00'0 0.0
2018-Sep-13 02:30N 29°37' W 095°00'0 0.0
2018-Sep-13 02:03N 29°37' W 095°00'0 0.0
2018-Sep-13 02:00N 29°37' W 095°00'0 0.0
2018-Sep-13 01:30N 29°37' W 095°00'0 0.0
2018-Sep-13 01:03N 29°37' W 095°00'0 0.0
2018-Sep-13 01:00N 29°37' W 095°00'0 0.0
2018-Sep-13 00:27N 29°37' W 095°00'0 0.0
2018-Sep-13 00:03N 29°37' W 095°00'0 0.0
2018-Sep-13 00:00N 29°37' W 095°00'0 0.0
2018-Sep-12 23:30N 29°37' W 095°00'0 0.0
2018-Sep-12 23:03N 29°37' W 095°00'0 0.0
2018-Sep-12 23:00N 29°37' W 095°00'0 0.0
2018-Sep-12 22:30N 29°37' W 095°00'0 0.0
2018-Sep-12 22:03N 29°37' W 095°00'0 0.0
2018-Sep-12 22:00N 29°37' W 095°00'0 0.0
2018-Sep-12 21:30N 29°37' W 095°00'0 0.0
2018-Sep-12 21:03N 29°37' W 095°00'0 0.0
2018-Sep-12 21:00N 29°37' W 095°00'0 0.0
2018-Sep-12 20:30N 29°37' W 095°00'0 0.0
2018-Sep-12 20:00N 29°37' W 095°00'0 0.4
2018-Sep-12 19:30N 29°37' W 095°00'3 6.2
2018-Sep-12 19:03N 29°36' W 094°57'110.8
2018-Sep-12 19:00N 29°36' W 094°57'713.5
2018-Sep-12 18:29N 29°30' W 094°52'613.5
2018-Sep-12 18:02N 29°24' W 094°49'013.6
2018-Sep-12 18:00N 29°24' W 094°49'711.4
2018-Sep-12 17:23N 29°21' W 094°42'512.7
2018-Sep-12 17:00N 29°18' W 094°37'1711.1
2018-Sep-12 15:28N 29°09' W 094°21'713.0
2018-Sep-12 14:55N 29°05' W 094°15'513.0
2018-Sep-12 14:30N 29°01' W 094°10'  
2018-Sep-10 07:34N 24°44' W 080°35'315.6
2018-Sep-10 07:24N 24°46' W 080°33'515.6
2018-Sep-10 07:04N 24°49' W 080°28'115.6
2018-Sep-10 06:59N 24°49' W 080°27'815.3
2018-Sep-10 06:28N 24°54' W 080°20'3413.5
2018-Sep-10 03:59N 25°23' W 080°01'612.2
2018-Sep-10 03:29N 25°29' W 080°01'512.0
2018-Sep-10 03:03N 25°34' W 080°01'112.0
2018-Sep-10 03:00N 25°35' W 080°01'612.0
2018-Sep-10 02:30N 25°41' W 080°00'511.9
2018-Sep-10 02:03N 25°46' W 080°00'111.6
2018-Sep-10 02:00N 25°47' W 080°00'612.3
2018-Sep-10 01:30N 25°53' W 079°60'612.5
2018-Sep-10 01:03N 25°59' W 079°60'112.3
2018-Sep-10 01:00N 25°59' W 079°60'611.9
2018-Sep-10 00:30N 26°05' W 079°60'511.5
2018-Sep-10 00:03N 26°10' W 079°59'010.9
2018-Sep-10 00:00N 26°11' W 079°59'510.8
2018-Sep-09 23:30N 26°16' W 079°59'410.0
2018-Sep-09 23:03N 26°21' W 079°59'1 9.9
2018-Sep-09 23:00N 26°21' W 079°59'5 9.8
2018-Sep-09 22:29N 26°26' W 079°59'8 9.4
2018-Sep-09 21:38N 26°34' W 079°58'1 9.1
2018-Sep-09 21:28N 26°36' W 079°58'4 9.0
2018-Sep-09 21:02N 26°40' W 079°58'0 9.2
2018-Sep-09 21:00N 26°40' W 079°58'6 9.5
2018-Sep-09 20:25N 26°46' W 079°58'410.4
2018-Sep-09 20:03N 26°49' W 079°58'110.8
2018-Sep-09 19:58N 26°50' W 079°58'510.8
2018-Sep-09 19:30N 26°55' W 079°58'510.9
2018-Sep-09 19:03N 27°00' W 079°59'110.9
2018-Sep-09 18:59N 27°01' W 079°59'  
Track history (hours):
 
Tides and Currents Weather Stations Pressure Air Temp Water Temp Dewpoint Dewpoint Depression Visibility Wind Speed Wind Dir Waves Ship Positions

Suomigracht

Last reported at 2018-Sep-18 09:11 UTC. Time now 2018-Sep-19 05:02 UTC.
Position N 28°25' W 093°03'.

Length 173 m; beam 26 m.

Type: Cargo ship. MMSI: 246100000.

Date/timePositionNaut miles runAvg speedWind from/ knotsBaromVisibWave heightAir tempDewpointWater temp
2018-Sep-18 09:11N 28°25' W 093°03'214.3
2018-Sep-18 09:02N 28°26' W 093°04'2314.0
2018-Sep-18 07:22N 28°45' W 093°20'514.0
2018-Sep-18 07:03N 28°49' W 093°24'114.0
2018-Sep-18 06:59N 28°49' W 093°24'714.0
2018-Sep-18 06:29N 28°55' W 093°29'613.8
2018-Sep-18 06:03N 28°60' W 093°33'113.9
2018-Sep-18 06:00N 29°00' W 093°34'713.8
2018-Sep-18 05:30N 29°06' W 093°38'612.9
2018-Sep-18 05:03N 29°11' W 093°40'113.4
2018-Sep-18 05:00N 29°12' W 093°40'713.4
2018-Sep-18 04:29N 29°19' W 093°40'613.8
2018-Sep-18 04:03N 29°25' W 093°40'114.1
2018-Sep-18 04:00N 29°26' W 093°40'611.7
2018-Sep-18 03:30N 29°31' W 093°42'612.5
2018-Sep-18 03:03N 29°35' W 093°47'0 7.8
2018-Sep-18 03:00N 29°35' W 093°47'5 9.7
2018-Sep-18 02:30N 29°40' W 093°50'510.2
2018-Sep-18 02:03N 29°44' W 093°52'0 9.0
2018-Sep-18 02:00N 29°44' W 093°52'4 8.4
2018-Sep-18 01:30N 29°47' W 093°56'4 8.8
2018-Sep-18 01:03N 29°50' W 093°57'010.0
2018-Sep-18 01:00N 29°51' W 093°57'1 2.4
2018-Sep-18 00:30N 29°52' W 093°56'0 0.0
2018-Sep-18 00:03N 29°52' W 093°56'0 0.0
2018-Sep-18 00:00N 29°52' W 093°56'0 0.0
2018-Sep-17 23:30N 29°52' W 093°56'0 0.0
2018-Sep-17 23:00N 29°52' W 093°56'0 0.0
2018-Sep-17 22:30N 29°52' W 093°56'0 0.0
2018-Sep-17 22:03N 29°52' W 093°56'0 0.0
2018-Sep-17 22:00N 29°52' W 093°56'0 0.0
2018-Sep-17 21:30N 29°52' W 093°56'0 0.0
2018-Sep-17 21:03N 29°52' W 093°56'0 0.0
2018-Sep-17 21:00N 29°52' W 093°56'0 0.0
2018-Sep-17 20:30N 29°52' W 093°56'0 0.0
2018-Sep-17 20:03N 29°52' W 093°56'0 0.0
2018-Sep-17 20:00N 29°52' W 093°56'0 0.0
2018-Sep-17 19:30N 29°52' W 093°56'0 0.0
2018-Sep-17 19:03N 29°52' W 093°56'0 0.0
2018-Sep-17 19:00N 29°52' W 093°56'0 0.0
2018-Sep-17 18:30N 29°52' W 093°56'0 0.0
2018-Sep-17 18:03N 29°52' W 093°56'0 0.0
2018-Sep-17 18:00N 29°52' W 093°56'0 0.0
2018-Sep-17 17:30N 29°52' W 093°56'0 0.0
2018-Sep-17 17:03N 29°52' W 093°56'0 0.0
2018-Sep-17 17:00N 29°52' W 093°56'0 0.0
2018-Sep-17 16:30N 29°52' W 093°56'0 0.0
2018-Sep-17 16:00N 29°52' W 093°56'0 0.0
2018-Sep-17 15:30N 29°52' W 093°56'0 0.0
2018-Sep-17 15:03N 29°52' W 093°56'0 0.1
2018-Sep-17 15:00N 29°52' W 093°56'0 0.0
2018-Sep-17 14:30N 29°52' W 093°56'0 0.0
2018-Sep-17 14:00N 29°52' W 093°56'0 0.0
2018-Sep-17 13:30N 29°52' W 093°56'0 0.0
2018-Sep-17 13:03N 29°52' W 093°56'0 0.1
2018-Sep-17 13:00N 29°52' W 093°56'0 0.0
2018-Sep-17 12:30N 29°52' W 093°56'0 0.0
2018-Sep-17 12:03N 29°52' W 093°56'0 0.0
2018-Sep-17 12:00N 29°52' W 093°56'0 0.0
2018-Sep-17 11:30N 29°52' W 093°56'0 0.0
2018-Sep-17 11:03N 29°52' W 093°56'0 0.2
2018-Sep-17 11:00N 29°52' W 093°56'0 0.0
2018-Sep-17 10:27N 29°52' W 093°56'0 0.0
2018-Sep-17 10:03N 29°52' W 093°56'0 0.1
2018-Sep-17 10:00N 29°52' W 093°56'0 0.0
2018-Sep-17 09:30N 29°52' W 093°56'0 0.0
2018-Sep-17 09:03N 29°52' W 093°56'0 0.0
2018-Sep-17 09:00N 29°52' W 093°56'0 0.0
2018-Sep-17 08:30N 29°52' W 093°56'0 0.0
2018-Sep-17 08:03N 29°52' W 093°56'0 0.0
2018-Sep-17 08:00N 29°52' W 093°56'0 0.0
2018-Sep-17 07:24N 29°52' W 093°56'0 0.0
2018-Sep-17 07:03N 29°52' W 093°56'0 0.1
2018-Sep-17 07:00N 29°52' W 093°56'0 0.0
2018-Sep-17 06:30N 29°52' W 093°56'0 0.0
2018-Sep-17 06:03N 29°52' W 093°56'0 0.0
2018-Sep-17 06:00N 29°52' W 093°56'0 0.0
2018-Sep-17 05:30N 29°52' W 093°56'0 0.0
2018-Sep-17 05:03N 29°52' W 093°56'0 0.0
2018-Sep-17 05:00N 29°52' W 093°56'0 0.0
2018-Sep-17 04:29N 29°52' W 093°56'0 0.0
2018-Sep-17 04:02N 29°52' W 093°56'0 0.0
2018-Sep-17 03:59N 29°52' W 093°56'0 0.0
2018-Sep-17 03:29N 29°52' W 093°56'0 0.0
2018-Sep-17 03:02N 29°52' W 093°56'0 0.0
2018-Sep-17 02:59N 29°52' W 093°56'0 0.0
2018-Sep-17 02:29N 29°52' W 093°56'0 0.0
2018-Sep-17 02:02N 29°52' W 093°56'0 0.1
2018-Sep-17 01:59N 29°52' W 093°56'0 0.0
2018-Sep-17 01:29N 29°52' W 093°56'0 0.0
2018-Sep-17 01:02N 29°52' W 093°56'0 0.1
2018-Sep-17 00:59N 29°52' W 093°56'0 0.0
2018-Sep-17 00:29N 29°52' W 093°56'0 0.0
2018-Sep-17 00:02N 29°52' W 093°56'0 0.2
2018-Sep-16 23:59N 29°52' W 093°56'0 0.0
2018-Sep-16 23:29N 29°52' W 093°56'0 0.0
2018-Sep-16 23:02N 29°52' W 093°56'0 0.0
2018-Sep-16 22:59N 29°52' W 093°56'0 0.0
2018-Sep-16 22:29N 29°52' W 093°56'0 0.0
2018-Sep-16 22:02N 29°52' W 093°56'0 0.0
2018-Sep-16 21:59N 29°52' W 093°56'0 0.0
2018-Sep-16 21:29N 29°52' W 093°56'0 0.0
2018-Sep-16 21:02N 29°52' W 093°56'0 0.0
2018-Sep-16 20:59N 29°52' W 093°56'0 0.0
2018-Sep-16 20:29N 29°52' W 093°56'0 0.0
2018-Sep-16 20:02N 29°52' W 093°56'0 0.0
2018-Sep-16 19:56N 29°52' W 093°56'0 0.0
2018-Sep-16 19:29N 29°52' W 093°56'0 0.0
2018-Sep-16 19:02N 29°52' W 093°56'0 0.0
2018-Sep-16 18:59N 29°52' W 093°56'0 0.0
2018-Sep-16 18:29N 29°52' W 093°56'0 0.0
2018-Sep-16 18:02N 29°52' W 093°56'0 0.0
2018-Sep-16 17:59N 29°52' W 093°56'0 0.0
2018-Sep-16 17:29N 29°52' W 093°56'0 0.0
2018-Sep-16 17:02N 29°52' W 093°56'0 0.0
2018-Sep-16 16:59N 29°52' W 093°56'0 0.0
2018-Sep-16 16:29N 29°52' W 093°56'0 0.0
2018-Sep-16 16:02N 29°52' W 093°56'0 0.0
2018-Sep-16 15:59N 29°52' W 093°56'0 0.0
2018-Sep-16 15:29N 29°52' W 093°56'0 0.0
2018-Sep-16 15:02N 29°52' W 093°56'0 0.1
2018-Sep-16 14:59N 29°52' W 093°56'0 0.0
2018-Sep-16 14:29N 29°52' W 093°56'0 0.0
2018-Sep-16 13:29N 29°52' W 093°56'0 0.0
2018-Sep-16 13:02N 29°52' W 093°56'0 0.0
2018-Sep-16 12:59N 29°52' W 093°56'0 0.0
2018-Sep-16 12:29N 29°52' W 093°56'0 0.0
2018-Sep-16 12:02N 29°52' W 093°56'0 0.1
2018-Sep-16 11:59N 29°52' W 093°56'0 0.0
2018-Sep-16 11:29N 29°52' W 093°56'0 0.0
2018-Sep-16 11:02N 29°52' W 093°56'0 0.0
2018-Sep-16 10:59N 29°52' W 093°56'0 0.0
2018-Sep-16 10:29N 29°52' W 093°56'0 0.0
2018-Sep-16 10:02N 29°52' W 093°56'0 0.2
2018-Sep-16 09:59N 29°52' W 093°56'0 0.0
2018-Sep-16 09:29N 29°52' W 093°56'0 0.0
2018-Sep-16 09:02N 29°52' W 093°56'0 0.0
2018-Sep-16 08:59N 29°52' W 093°56'0 0.0
2018-Sep-16 08:29N 29°52' W 093°56'0 0.0
2018-Sep-16 08:02N 29°52' W 093°56'0 0.0
2018-Sep-16 07:59N 29°52' W 093°56'0 0.0
2018-Sep-16 07:29N 29°52' W 093°56'0 0.0
2018-Sep-16 07:02N 29°52' W 093°56'0 0.0
2018-Sep-16 06:59N 29°52' W 093°56'0 0.0
2018-Sep-16 06:29N 29°52' W 093°56'0 0.0
2018-Sep-16 06:02N 29°52' W 093°56'0 0.0
2018-Sep-16 05:59N 29°52' W 093°56'0 0.0
2018-Sep-16 05:29N 29°52' W 093°56'0 0.0
2018-Sep-16 05:02N 29°52' W 093°56'0 0.0
2018-Sep-16 04:59N 29°52' W 093°56'0 0.0
2018-Sep-16 04:29N 29°52' W 093°56'0 0.0
2018-Sep-16 04:02N 29°52' W 093°56'0 0.0
2018-Sep-16 03:59N 29°52' W 093°56'0 0.0
2018-Sep-16 03:29N 29°52' W 093°56'0 0.0
2018-Sep-16 03:02N 29°52' W 093°56'0 0.0
2018-Sep-16 02:59N 29°52' W 093°56'0 0.0
2018-Sep-16 02:29N 29°52' W 093°56'0 0.0
2018-Sep-16 02:02N 29°52' W 093°56'0 0.0
2018-Sep-16 01:59N 29°52' W 093°56'0 0.0
2018-Sep-16 01:29N 29°52' W 093°56'0 0.0
2018-Sep-16 01:02N 29°52' W 093°56'0 0.0
2018-Sep-16 00:59N 29°52' W 093°56'0 0.0
2018-Sep-16 00:29N 29°52' W 093°56'0 0.0
2018-Sep-16 00:02N 29°52' W 093°56'0 0.0
2018-Sep-15 23:56N 29°52' W 093°56'0 0.0
2018-Sep-15 23:29N 29°52' W 093°56'0 0.0
2018-Sep-15 23:02N 29°52' W 093°56'0 0.1
2018-Sep-15 22:59N 29°52' W 093°56'0 0.0
2018-Sep-15 22:29N 29°52' W 093°56'0 0.0
2018-Sep-15 22:02N 29°52' W 093°56'0 0.0
2018-Sep-15 21:59N 29°52' W 093°56'0 0.0
2018-Sep-15 21:29N 29°52' W 093°56'0 0.0
2018-Sep-15 21:02N 29°52' W 093°56'0 0.2
2018-Sep-15 20:59N 29°52' W 093°56'0 0.0
2018-Sep-15 20:29N 29°52' W 093°56'0 0.0
2018-Sep-15 20:02N 29°52' W 093°56'0 0.1
2018-Sep-15 19:59N 29°52' W 093°56'0 0.0
2018-Sep-15 19:29N 29°52' W 093°56'0 0.0
2018-Sep-15 19:02N 29°52' W 093°56'0 0.0
2018-Sep-15 18:59N 29°52' W 093°56'0 0.0
2018-Sep-15 18:29N 29°52' W 093°56'0 0.0
2018-Sep-15 18:02N 29°52' W 093°56'0 0.0
2018-Sep-15 17:59N 29°52' W 093°56'0 0.0
2018-Sep-15 17:29N 29°52' W 093°56'0 0.0
2018-Sep-15 17:02N 29°52' W 093°56'0 0.0
2018-Sep-15 16:59N 29°52' W 093°56'0 0.0
2018-Sep-15 16:29N 29°52' W 093°56'0 0.0
2018-Sep-15 16:02N 29°52' W 093°56'0 0.0
2018-Sep-15 15:59N 29°52' W 093°56'0 0.0
2018-Sep-15 15:28N 29°52' W 093°56'0 0.0
2018-Sep-15 14:58N 29°52' W 093°56'0 0.0
2018-Sep-15 14:28N 29°52' W 093°56'0 0.0
2018-Sep-15 13:58N 29°52' W 093°56'0 0.0
2018-Sep-15 13:28N 29°52' W 093°56'0 0.0
2018-Sep-15 13:01N 29°52' W 093°56'0 0.0
2018-Sep-15 12:58N 29°52' W 093°56'0 0.0
2018-Sep-15 12:28N 29°52' W 093°56'0 0.0
2018-Sep-15 12:01N 29°52' W 093°56'0 0.0
2018-Sep-15 11:58N 29°52' W 093°56'0 0.0
2018-Sep-15 11:28N 29°52' W 093°56'0 0.0
2018-Sep-15 11:01N 29°52' W 093°56'0 0.0
2018-Sep-15 10:58N 29°52' W 093°56'0 0.0
2018-Sep-15 10:28N 29°52' W 093°56'0 0.0
2018-Sep-15 10:01N 29°52' W 093°56'0 0.1
2018-Sep-15 09:58N 29°52' W 093°56'0 0.0
2018-Sep-15 09:28N 29°52' W 093°56'0 0.0
2018-Sep-15 09:01N 29°52' W 093°56'0 0.0
2018-Sep-15 08:58N 29°52' W 093°56'0 0.0
2018-Sep-15 08:28N 29°52' W 093°56'0 0.0
2018-Sep-15 07:58N 29°52' W 093°56'0 0.0
2018-Sep-15 07:28N 29°52' W 093°56'0 0.0
2018-Sep-15 07:03N 29°52' W 093°56'0 0.5
2018-Sep-15 07:00N 29°52' W 093°56'0 0.9
2018-Sep-15 06:30N 29°52' W 093°56'2 5.2
2018-Sep-15 06:03N 29°50' W 093°57'0 9.1
2018-Sep-15 06:00N 29°50' W 093°57'4 7.9
2018-Sep-15 05:30N 29°46' W 093°55'4 9.3
2018-Sep-15 05:03N 29°43' W 093°52'111.2
2018-Sep-15 05:00N 29°43' W 093°51'611.5
2018-Sep-15 04:30N 29°37' W 093°49'511.3
2018-Sep-15 04:03N 29°33' W 093°45'0 9.5
2018-Sep-15 04:00N 29°33' W 093°45'5 9.2
2018-Sep-15 03:30N 29°30' W 093°49'614.0
2018-Sep-15 03:04N 29°29' W 093°56'113.7
2018-Sep-15 03:00N 29°29' W 093°57'714.5
2018-Sep-15 02:30N 29°24' W 094°03'2614.2
2018-Sep-15 00:41N 29°08' W 094°27'314.6
2018-Sep-15 00:28N 29°10' W 094°29'614.4
2018-Sep-15 00:03N 29°15' W 094°34'114.3
2018-Sep-14 23:58N 29°16' W 094°35'612.5
2018-Sep-14 23:30N 29°20' W 094°40'614.2
2018-Sep-14 23:03N 29°21' W 094°47'115.4
2018-Sep-14 23:00N 29°22' W 094°48'714.8
2018-Sep-14 22:30N 29°28' W 094°51'614.4
2018-Sep-14 22:03N 29°34' W 094°55'113.9
2018-Sep-14 22:00N 29°34' W 094°56'5 9.6
2018-Sep-14 21:30N 29°37' W 095°01'0 0.1
2018-Sep-14 20:58N 29°37' W 095°00'0 0.0
2018-Sep-14 20:28N 29°37' W 095°00'0 0.0
2018-Sep-14 20:01N 29°37' W 095°00'0 0.0
2018-Sep-14 19:58N 29°37' W 095°00'0 0.0
2018-Sep-14 19:28N 29°37' W 095°00'0 0.0
2018-Sep-14 19:01N 29°37' W 095°00'0 0.1
2018-Sep-14 18:58N 29°37' W 095°00'0 0.0
2018-Sep-14 18:25N 29°37' W 095°00'0 0.0
2018-Sep-14 18:01N 29°37' W 095°00'0 0.0
2018-Sep-14 17:58N 29°37' W 095°00'0 0.0
2018-Sep-14 17:28N 29°37' W 095°00'0 0.0
2018-Sep-14 17:01N 29°37' W 095°00'0 0.1
2018-Sep-14 16:58N 29°37' W 095°00'0 0.0
2018-Sep-14 16:28N 29°37' W 095°00'0 0.0
2018-Sep-14 16:01N 29°37' W 095°00'0 0.0
2018-Sep-14 15:58N 29°37' W 095°00'0 0.0
2018-Sep-14 15:28N 29°37' W 095°00'0 0.0
2018-Sep-14 15:01N 29°37' W 095°00'0 0.0
2018-Sep-14 14:58N 29°37' W 095°00'0 0.0
2018-Sep-14 14:28N 29°37' W 095°00'0 0.0
2018-Sep-14 13:58N 29°37' W 095°00'0 0.0
2018-Sep-14 13:28N 29°37' W 095°00'0 0.0
2018-Sep-14 12:55N 29°37' W 095°00'0 0.0
2018-Sep-14 12:28N 29°37' W 095°00'0 0.0
2018-Sep-14 12:01N 29°37' W 095°00'0 0.1
2018-Sep-14 11:58N 29°37' W 095°00'0 0.0
2018-Sep-14 11:28N 29°37' W 095°00'0 0.0
2018-Sep-14 11:01N 29°37' W 095°00'0 0.0
2018-Sep-14 10:58N 29°37' W 095°00'0 0.0
2018-Sep-14 10:28N 29°37' W 095°00'0 0.0
2018-Sep-14 10:01N 29°37' W 095°00'0 0.0
2018-Sep-14 09:58N 29°37' W 095°00'0 0.0
2018-Sep-14 09:28N 29°37' W 095°00'0 0.0
2018-Sep-14 09:01N 29°37' W 095°00'0 0.0
2018-Sep-14 08:58N 29°37' W 095°00'0 0.0
2018-Sep-14 08:28N 29°37' W 095°00'0 0.0
2018-Sep-14 08:01N 29°37' W 095°00'0 0.1
2018-Sep-14 07:58N 29°37' W 095°00'0 0.0
2018-Sep-14 07:28N 29°37' W 095°00'0 0.0
2018-Sep-14 07:01N 29°37' W 095°00'0 0.0
2018-Sep-14 06:58N 29°37' W 095°00'0 0.0
2018-Sep-14 06:28N 29°37' W 095°00'0 0.0
2018-Sep-14 06:01N 29°37' W 095°00'0 0.1
2018-Sep-14 05:58N 29°37' W 095°00'0 0.0
2018-Sep-14 05:28N 29°37' W 095°00'0 0.0
2018-Sep-14 05:01N 29°37' W 095°00'0 0.0
2018-Sep-14 04:31N 29°37' W 095°00'0 0.0
2018-Sep-14 04:04N 29°37' W 095°00'0 0.0
2018-Sep-14 04:01N 29°37' W 095°00'0 0.0
2018-Sep-14 03:30N 29°37' W 095°00'0 0.0
2018-Sep-14 03:03N 29°37' W 095°00'0 0.1
2018-Sep-14 03:00N 29°37' W 095°00'0 0.0
2018-Sep-14 02:30N 29°37' W 095°00'0 0.0
2018-Sep-14 02:03N 29°37' W 095°00'0 0.0
2018-Sep-14 02:00N 29°37' W 095°00'0 0.0
2018-Sep-14 01:30N 29°37' W 095°00'0 0.0
2018-Sep-14 01:03N 29°37' W 095°00'0 0.0
2018-Sep-14 01:00N 29°37' W 095°00'0 0.0
2018-Sep-14 00:30N 29°37' W 095°00'0 0.0
2018-Sep-14 00:03N 29°37' W 095°00'0 0.1
2018-Sep-14 00:00N 29°37' W 095°00'0 0.0
2018-Sep-13 23:30N 29°37' W 095°00'0 0.0
2018-Sep-13 23:03N 29°37' W 095°00'0 0.0
2018-Sep-13 22:57N 29°37' W 095°00'0 0.0
2018-Sep-13 22:30N 29°37' W 095°00'0 0.0
2018-Sep-13 22:03N 29°37' W 095°00'0 0.0
2018-Sep-13 22:00N 29°37' W 095°00'0 0.0
2018-Sep-13 21:30N 29°37' W 095°00'0 0.0
2018-Sep-13 21:03N 29°37' W 095°00'0 0.0
2018-Sep-13 21:00N 29°37' W 095°00'0 0.0
2018-Sep-13 20:30N 29°37' W 095°00'0 0.0
2018-Sep-13 20:03N 29°37' W 095°00'0 0.0
2018-Sep-13 20:00N 29°37' W 095°00'0 0.0
2018-Sep-13 19:30N 29°37' W 095°00'0 0.0
2018-Sep-13 19:03N 29°37' W 095°00'0 0.1
2018-Sep-13 19:00N 29°37' W 095°00'0 0.0
2018-Sep-13 18:30N 29°37' W 095°00'0 0.0
2018-Sep-13 18:03N 29°37' W 095°00'0 0.1
2018-Sep-13 18:00N 29°37' W 095°00'0 0.0
2018-Sep-13 17:30N 29°37' W 095°00'0 0.0
2018-Sep-13 17:03N 29°37' W 095°00'0 0.0
2018-Sep-13 17:00N 29°37' W 095°00'0 0.0
2018-Sep-13 16:30N 29°37' W 095°00'0 0.0
2018-Sep-13 16:03N 29°37' W 095°00'0 0.1
2018-Sep-13 16:00N 29°37' W 095°00'0 0.0
2018-Sep-13 15:30N 29°37' W 095°00'0 0.0
2018-Sep-13 15:03N 29°37' W 095°00'0 0.0
2018-Sep-13 15:00N 29°37' W 095°00'0 0.0
2018-Sep-13 14:03N 29°37' W 095°00'0 0.0
2018-Sep-13 14:00N 29°37' W 095°00'0 0.0
2018-Sep-13 13:30N 29°37' W 095°00'0 0.0
2018-Sep-13 13:03N 29°37' W 095°00'0 0.0
2018-Sep-13 13:00N 29°37' W 095°00'0 0.0
2018-Sep-13 12:30N 29°37' W 095°00'0 0.0
2018-Sep-13 12:03N 29°37' W 095°00'0 0.0
2018-Sep-13 12:00N 29°37' W 095°00'0 0.0
2018-Sep-13 11:30N 29°37' W 095°00'0 0.0
2018-Sep-13 11:03N 29°37' W 095°00'0 0.1
2018-Sep-13 11:00N 29°37' W 095°00'0 0.0
2018-Sep-13 10:30N 29°37' W 095°00'0 0.0
2018-Sep-13 10:03N 29°37' W 095°00'0 0.0
2018-Sep-13 10:00N 29°37' W 095°00'0 0.0
2018-Sep-13 09:30N 29°37' W 095°00'0 0.0
2018-Sep-13 09:03N 29°37' W 095°00'0 0.0
2018-Sep-13 09:00N 29°37' W 095°00'0 0.0
2018-Sep-13 08:30N 29°37' W 095°00'0 0.0
2018-Sep-13 08:03N 29°37' W 095°00'0 0.0
2018-Sep-13 08:00N 29°37' W 095°00'0 0.0
2018-Sep-13 07:30N 29°37' W 095°00'0 0.0
2018-Sep-13 07:03N 29°37' W 095°00'0 0.0
2018-Sep-13 07:00N 29°37' W 095°00'0 0.0
2018-Sep-13 06:30N 29°37' W 095°00'0 0.0
2018-Sep-13 06:03N 29°37' W 095°00'0 0.1
2018-Sep-13 06:00N 29°37' W 095°00'0 0.0
2018-Sep-13 05:30N 29°37' W 095°00'0 0.0
2018-Sep-13 05:03N 29°37' W 095°00'0 0.1
2018-Sep-13 05:00N 29°37' W 095°00'0 0.0
2018-Sep-13 04:27N 29°37' W 095°00'0 0.0
2018-Sep-13 04:03N 29°37' W 095°00'0 0.0
2018-Sep-13 04:00N 29°37' W 095°00'0 0.0
2018-Sep-13 03:30N 29°37' W 095°00'0 0.0
2018-Sep-13 03:00N 29°37' W 095°00'0 0.0
2018-Sep-13 02:30N 29°37' W 095°00'0 0.0
2018-Sep-13 02:03N 29°37' W 095°00'0 0.0
2018-Sep-13 02:00N 29°37' W 095°00'0 0.0
2018-Sep-13 01:30N 29°37' W 095°00'0 0.0
2018-Sep-13 01:03N 29°37' W 095°00'0 0.0
2018-Sep-13 01:00N 29°37' W 095°00'0 0.0
2018-Sep-13 00:27N 29°37' W 095°00'0 0.0
2018-Sep-13 00:03N 29°37' W 095°00'0 0.0
2018-Sep-13 00:00N 29°37' W 095°00'0 0.0
2018-Sep-12 23:30N 29°37' W 095°00'0 0.0
2018-Sep-12 23:03N 29°37' W 095°00'0 0.0
2018-Sep-12 23:00N 29°37' W 095°00'0 0.0
2018-Sep-12 22:30N 29°37' W 095°00'0 0.0
2018-Sep-12 22:03N 29°37' W 095°00'0 0.0
2018-Sep-12 22:00N 29°37' W 095°00'0 0.0
2018-Sep-12 21:30N 29°37' W 095°00'0 0.0
2018-Sep-12 21:03N 29°37' W 095°00'0 0.0
2018-Sep-12 21:00N 29°37' W 095°00'0 0.0
2018-Sep-12 20:30N 29°37' W 095°00'0 0.0
2018-Sep-12 20:00N 29°37' W 095°00'0 0.4
2018-Sep-12 19:30N 29°37' W 095°00'3 6.2
2018-Sep-12 19:03N 29°36' W 094°57'110.8
2018-Sep-12 19:00N 29°36' W 094°57'713.5
2018-Sep-12 18:29N 29°30' W 094°52'613.5
2018-Sep-12 18:02N 29°24' W 094°49'013.6
2018-Sep-12 18:00N 29°24' W 094°49'711.4
2018-Sep-12 17:23N 29°21' W 094°42'512.7
2018-Sep-12 17:00N 29°18' W 094°37'1711.1
2018-Sep-12 15:28N 29°09' W 094°21'713.0
2018-Sep-12 14:55N 29°05' W 094°15'513.0
2018-Sep-12 14:30N 29°01' W 094°10'  
2018-Sep-10 07:34N 24°44' W 080°35'315.6
2018-Sep-10 07:24N 24°46' W 080°33'515.6
2018-Sep-10 07:04N 24°49' W 080°28'115.6
2018-Sep-10 06:59N 24°49' W 080°27'815.3
2018-Sep-10 06:28N 24°54' W 080°20'3413.5
2018-Sep-10 03:59N 25°23' W 080°01'612.2
2018-Sep-10 03:29N 25°29' W 080°01'512.0
2018-Sep-10 03:03N 25°34' W 080°01'112.0
2018-Sep-10 03:00N 25°35' W 080°01'612.0
2018-Sep-10 02:30N 25°41' W 080°00'511.9
2018-Sep-10 02:03N 25°46' W 080°00'111.6
2018-Sep-10 02:00N 25°47' W 080°00'612.3
2018-Sep-10 01:30N 25°53' W 079°60'612.5
2018-Sep-10 01:03N 25°59' W 079°60'112.3
2018-Sep-10 01:00N 25°59' W 079°60'611.9
2018-Sep-10 00:30N 26°05' W 079°60'511.5
2018-Sep-10 00:03N 26°10' W 079°59'010.9
2018-Sep-10 00:00N 26°11' W 079°59'510.8
2018-Sep-09 23:30N 26°16' W 079°59'410.0
2018-Sep-09 23:03N 26°21' W 079°59'1 9.9
2018-Sep-09 23:00N 26°21' W 079°59'5 9.8
2018-Sep-09 22:29N 26°26' W 079°59'8 9.4
2018-Sep-09 21:38N 26°34' W 079°58'1 9.1
2018-Sep-09 21:28N 26°36' W 079°58'4 9.0
2018-Sep-09 21:02N 26°40' W 079°58'0 9.2
2018-Sep-09 21:00N 26°40' W 079°58'6 9.5
2018-Sep-09 20:25N 26°46' W 079°58'410.4
2018-Sep-09 20:03N 26°49' W 079°58'110.8
2018-Sep-09 19:58N 26°50' W 079°58'510.8
2018-Sep-09 19:30N 26°55' W 079°58'510.9
2018-Sep-09 19:03N 27°00' W 079°59'110.9
2018-Sep-09 18:59N 27°01' W 079°59'  

Dump ship's entire track history